createdAt,value
2019-02-27T00:00:33.417Z,45.80
2019-02-27T00:01:32.442Z,45.90
2019-02-27T00:02:32.409Z,46.11
2019-02-27T00:03:32.390Z,45.80
2019-02-27T00:04:34.854Z,45.80
2019-02-27T00:05:32.369Z,45.70
2019-02-27T00:06:32.349Z,45.60
2019-02-27T00:07:32.369Z,45.60
2019-02-27T00:08:32.328Z,45.62
2019-02-27T00:09:32.868Z,45.92
2019-02-27T00:10:32.310Z,45.72
2019-02-27T00:11:32.289Z,45.62
2019-02-27T00:12:32.288Z,45.62
2019-02-27T00:13:32.311Z,45.53
2019-02-27T00:14:32.271Z,45.80
2019-02-27T00:15:32.248Z,45.70
2019-02-27T00:16:32.248Z,45.72
2019-02-27T00:17:32.232Z,45.60
2019-02-27T00:18:32.237Z,45.60
2019-02-27T00:19:32.248Z,45.62
2019-02-27T00:20:32.190Z,45.62
2019-02-27T00:21:32.188Z,45.70
2019-02-27T00:22:32.172Z,46.00
2019-02-27T00:23:32.173Z,45.32
2019-02-27T00:24:32.148Z,45.80
2019-02-27T00:25:35.927Z,45.92
2019-02-27T00:26:32.175Z,46.00
2019-02-27T00:27:32.129Z,45.62
2019-02-27T00:28:32.111Z,45.40
2019-02-27T00:29:32.112Z,46.11
2019-02-27T00:30:32.102Z,45.80
2019-02-27T00:31:32.071Z,45.92
2019-02-27T00:32:32.113Z,46.33
2019-02-27T00:33:32.058Z,45.53
2019-02-27T00:34:33.092Z,45.42
2019-02-27T00:35:32.062Z,45.32
2019-02-27T00:36:32.035Z,45.92
2019-02-27T00:37:32.009Z,45.42
2019-02-27T00:38:32.033Z,45.42
2019-02-27T00:39:32.001Z,45.53
2019-02-27T00:40:31.994Z,46.23
2019-02-27T00:41:31.953Z,45.72
2019-02-27T00:42:33.703Z,45.62
2019-02-27T00:43:31.949Z,45.92
2019-02-27T00:44:34.737Z,45.92
2019-02-27T00:45:31.928Z,45.42
2019-02-27T00:46:31.952Z,45.42
2019-02-27T00:47:31.909Z,45.42
2019-02-27T00:48:31.888Z,45.83
2019-02-27T00:49:32.326Z,45.92
2019-02-27T00:50:31.868Z,45.32
2019-02-27T00:51:31.886Z,45.62
2019-02-27T00:52:31.889Z,45.92
2019-02-27T00:53:31.849Z,45.62
2019-02-27T00:54:32.061Z,45.32
2019-02-27T00:55:31.808Z,45.53
2019-02-27T00:56:31.812Z,45.92
2019-02-27T00:57:31.791Z,45.53
2019-02-27T00:58:31.809Z,45.62
2019-02-27T00:59:33.114Z,45.53
2019-02-27T01:00:31.769Z,45.62
2019-02-27T01:01:31.748Z,45.62
2019-02-27T01:02:31.756Z,45.62
2019-02-27T01:03:31.734Z,45.62
2019-02-27T01:04:34.941Z,45.42
2019-02-27T01:05:31.710Z,45.32
2019-02-27T01:06:31.694Z,45.53
2019-02-27T01:07:31.689Z,45.62
2019-02-27T01:08:31.674Z,45.62
2019-02-27T01:09:31.681Z,45.72
2019-02-27T01:10:31.683Z,45.53
2019-02-27T01:11:31.649Z,45.53
2019-02-27T01:12:31.631Z,45.53
2019-02-27T01:13:31.861Z,45.62
2019-02-27T01:14:31.612Z,45.62
2019-02-27T01:15:31.630Z,45.32
2019-02-27T01:16:31.688Z,45.32
2019-02-27T01:17:31.674Z,45.42
2019-02-27T01:18:31.668Z,45.62
2019-02-27T01:19:31.627Z,45.32
2019-02-27T01:20:31.627Z,45.32
2019-02-27T01:21:31.657Z,45.42
2019-02-27T01:22:31.626Z,45.45
2019-02-27T01:23:31.619Z,45.22
2019-02-27T01:24:31.622Z,45.42
2019-02-27T01:25:31.592Z,45.02
2019-02-27T01:26:31.626Z,45.12
2019-02-27T01:27:31.606Z,44.92
2019-02-27T01:28:31.542Z,44.92
2019-02-27T01:29:31.546Z,45.12
2019-02-27T01:30:31.558Z,45.32
2019-02-27T01:31:31.429Z,45.32
2019-02-27T01:32:31.837Z,45.22
2019-02-27T01:33:31.512Z,45.02
2019-02-27T01:34:31.496Z,44.92
2019-02-27T01:35:31.475Z,45.32
2019-02-27T01:36:31.487Z,45.62
2019-02-27T01:37:32.271Z,45.53
2019-02-27T01:38:31.474Z,45.12
2019-02-27T01:39:31.447Z,45.42
2019-02-27T01:40:31.426Z,45.53
2019-02-27T01:41:31.405Z,45.54
2019-02-27T01:42:32.830Z,45.54
2019-02-27T01:43:31.293Z,45.42
2019-02-27T01:44:31.354Z,45.53
2019-02-27T01:45:31.354Z,45.53
2019-02-27T01:46:31.399Z,45.53
2019-02-27T01:47:31.387Z,45.32
2019-02-27T01:48:31.346Z,45.53
2019-02-27T01:49:31.319Z,45.53
2019-02-27T01:50:31.353Z,45.53
2019-02-27T01:51:31.294Z,45.32
2019-02-27T01:52:33.922Z,45.32
2019-02-27T01:53:31.277Z,45.53
2019-02-27T01:54:31.279Z,45.42
2019-02-27T01:55:31.250Z,45.54
2019-02-27T01:56:31.268Z,45.83
2019-02-27T01:57:31.276Z,45.53
2019-02-27T01:58:31.237Z,45.25
2019-02-27T01:59:31.201Z,45.25
2019-02-27T02:00:31.198Z,45.45
2019-02-27T02:01:31.213Z,45.42
2019-02-27T02:02:31.188Z,45.54
2019-02-27T02:03:31.139Z,45.42
2019-02-27T02:04:31.151Z,45.54
2019-02-27T02:05:31.148Z,45.25
2019-02-27T02:06:32.495Z,45.53
2019-02-27T02:07:31.030Z,45.54
2019-02-27T02:08:31.103Z,45.25
2019-02-27T02:09:31.539Z,45.25
2019-02-27T02:10:31.079Z,45.34
2019-02-27T02:11:32.743Z,45.45
2019-02-27T02:12:31.061Z,45.04
2019-02-27T02:13:31.074Z,45.45
2019-02-27T02:14:31.039Z,45.34
2019-02-27T02:15:31.410Z,45.14
2019-02-27T02:16:34.124Z,45.34
2019-02-27T02:17:31.025Z,45.14
2019-02-27T02:18:31.005Z,44.95
2019-02-27T02:19:31.001Z,45.25
2019-02-27T02:20:30.997Z,45.14
2019-02-27T02:21:32.067Z,45.04
2019-02-27T02:22:30.956Z,45.25
2019-02-27T02:23:30.939Z,44.84
2019-02-27T02:24:30.932Z,45.25
2019-02-27T02:25:31.028Z,44.95
2019-02-27T02:26:32.154Z,45.14
2019-02-27T02:27:31.155Z,45.25
2019-02-27T02:28:30.808Z,45.34
2019-02-27T02:29:30.787Z,45.25
2019-02-27T02:30:30.922Z,45.54
2019-02-27T02:31:30.774Z,45.45
2019-02-27T02:32:30.769Z,45.34
2019-02-27T02:33:30.789Z,45.65
2019-02-27T02:34:30.748Z,45.45
2019-02-27T02:35:30.731Z,45.34
2019-02-27T02:36:30.735Z,45.54
2019-02-27T02:37:33.683Z,45.34
2019-02-27T02:38:31.742Z,45.14
2019-02-27T02:39:30.768Z,45.14
2019-02-27T02:40:31.931Z,45.54
2019-02-27T02:41:30.678Z,45.45
2019-02-27T02:42:30.740Z,45.14
2019-02-27T02:43:30.751Z,45.14
2019-02-27T02:44:30.757Z,45.14
2019-02-27T02:45:33.102Z,44.84
2019-02-27T02:46:30.701Z,45.14
2019-02-27T02:47:30.686Z,45.25
2019-02-27T02:48:31.082Z,44.95
2019-02-27T02:49:30.673Z,44.95
2019-02-27T02:50:30.697Z,45.25
2019-02-27T02:51:30.742Z,44.84
2019-02-27T02:52:30.653Z,44.74
2019-02-27T02:53:30.621Z,44.54
2019-02-27T02:54:36.302Z,44.54
2019-02-27T02:55:32.350Z,44.44
2019-02-27T02:56:30.618Z,44.84
2019-02-27T02:57:35.931Z,44.44
2019-02-27T02:58:31.568Z,44.44
2019-02-27T02:59:30.553Z,44.44
2019-02-27T03:00:30.555Z,44.54
2019-02-27T03:01:30.597Z,44.54
2019-02-27T03:02:30.523Z,44.54
2019-02-27T03:03:35.969Z,44.54
2019-02-27T03:04:31.500Z,44.44
2019-02-27T03:05:30.492Z,44.64
2019-02-27T03:06:34.674Z,44.24
2019-02-27T03:07:31.524Z,44.24
2019-02-27T03:08:30.464Z,44.44
2019-02-27T03:09:31.664Z,44.64
2019-02-27T03:10:30.432Z,44.44
2019-02-27T03:11:30.418Z,44.54
2019-02-27T03:12:31.310Z,44.54
2019-02-27T03:13:30.441Z,44.44
2019-02-27T03:14:30.435Z,44.74
2019-02-27T03:15:30.410Z,44.64
2019-02-27T03:16:30.374Z,44.64
2019-02-27T03:17:30.352Z,44.64
2019-02-27T03:18:30.452Z,44.64
2019-02-27T03:19:30.375Z,44.64
2019-02-27T03:20:30.333Z,44.64
2019-02-27T03:21:30.306Z,44.44
2019-02-27T03:22:30.303Z,44.64
2019-02-27T03:23:30.309Z,44.54
2019-02-27T03:24:30.298Z,44.74
2019-02-27T03:25:30.752Z,44.54
2019-02-27T03:26:30.251Z,44.74
2019-02-27T03:27:30.877Z,44.64
2019-02-27T03:28:30.246Z,44.64
2019-02-27T03:29:30.224Z,44.64
2019-02-27T03:30:36.321Z,44.64
2019-02-27T03:31:31.247Z,44.84
2019-02-27T03:32:41.427Z,44.64
2019-02-27T03:33:31.204Z,44.64
2019-02-27T03:34:30.173Z,44.84
2019-02-27T03:35:30.175Z,44.54
2019-02-27T03:36:30.159Z,44.84
2019-02-27T03:37:30.176Z,44.84
2019-02-27T03:38:30.134Z,44.74
2019-02-27T03:39:34.398Z,44.84
2019-02-27T03:40:30.104Z,44.74
2019-02-27T03:41:30.113Z,44.76
2019-02-27T03:42:30.830Z,44.74
2019-02-27T03:43:30.127Z,44.87
2019-02-27T03:44:30.070Z,44.95
2019-02-27T03:45:31.007Z,44.64
2019-02-27T03:46:30.043Z,44.76
2019-02-27T03:47:30.028Z,44.74
2019-02-27T03:48:30.030Z,44.64
2019-02-27T03:49:30.063Z,44.76
2019-02-27T03:50:29.997Z,45.06
2019-02-27T03:51:30.002Z,44.84
2019-02-27T03:52:36.043Z,44.95
2019-02-27T03:53:30.990Z,45.06
2019-02-27T03:54:29.988Z,44.87
2019-02-27T03:55:32.908Z,45.14
2019-02-27T03:56:29.953Z,45.04
2019-02-27T03:57:29.947Z,45.14
2019-02-27T03:58:30.569Z,44.84
2019-02-27T03:59:29.913Z,45.04
2019-02-27T04:00:29.907Z,44.87
2019-02-27T04:01:30.493Z,44.84
2019-02-27T04:02:29.877Z,45.06
2019-02-27T04:03:29.867Z,44.95
2019-02-27T04:04:30.856Z,45.17
2019-02-27T04:05:29.849Z,44.96
2019-02-27T04:06:29.814Z,44.95
2019-02-27T04:07:31.786Z,44.95
2019-02-27T04:08:29.815Z,44.95
2019-02-27T04:09:29.798Z,44.44
2019-02-27T04:10:31.301Z,45.06
2019-02-27T04:11:29.780Z,45.17
2019-02-27T04:12:29.783Z,45.17
2019-02-27T04:13:29.775Z,44.95
2019-02-27T04:14:29.817Z,44.54
2019-02-27T04:15:29.736Z,44.46
2019-02-27T04:16:30.545Z,45.26
2019-02-27T04:17:29.719Z,45.17
2019-02-27T04:18:29.705Z,44.36
2019-02-27T04:19:29.706Z,45.26
2019-02-27T04:20:29.756Z,44.36
2019-02-27T04:21:29.667Z,45.17
2019-02-27T04:22:29.661Z,44.26
2019-02-27T04:23:29.641Z,44.46
2019-02-27T04:24:29.633Z,44.56
2019-02-27T04:25:31.439Z,44.46
2019-02-27T04:26:29.655Z,44.36
2019-02-27T04:27:29.596Z,44.36
2019-02-27T04:28:30.643Z,44.36
2019-02-27T04:29:29.598Z,44.56
2019-02-27T04:30:29.603Z,44.56
2019-02-27T04:31:30.623Z,44.56
2019-02-27T04:32:29.584Z,44.56
2019-02-27T04:33:29.543Z,44.36
2019-02-27T04:34:32.996Z,44.36
2019-02-27T04:35:29.532Z,44.56
2019-02-27T04:36:29.406Z,44.56
2019-02-27T04:37:29.504Z,44.36
2019-02-27T04:38:29.517Z,44.06
2019-02-27T04:39:29.485Z,43.96
2019-02-27T04:40:29.459Z,44.56
2019-02-27T04:41:29.451Z,44.46
2019-02-27T04:42:29.358Z,44.06
2019-02-27T04:43:31.943Z,43.96
2019-02-27T04:44:29.461Z,43.96
2019-02-27T04:45:29.407Z,44.06
2019-02-27T04:46:29.308Z,44.06
2019-02-27T04:47:30.388Z,44.16
2019-02-27T04:48:30.051Z,44.16
2019-02-27T04:49:29.358Z,44.16
2019-02-27T04:50:29.389Z,43.96
2019-02-27T04:51:29.341Z,43.96
2019-02-27T04:52:29.332Z,43.96
2019-02-27T04:53:32.014Z,43.96
2019-02-27T04:54:29.306Z,44.26
2019-02-27T04:55:29.301Z,44.16
2019-02-27T04:56:29.313Z,44.06
2019-02-27T04:57:30.798Z,44.06
2019-02-27T04:58:31.227Z,44.16
2019-02-27T04:59:29.262Z,44.36
2019-02-27T05:00:29.245Z,44.26
2019-02-27T05:01:29.292Z,44.16
2019-02-27T05:02:29.241Z,44.16
2019-02-27T05:03:29.231Z,44.16
2019-02-27T05:04:29.211Z,43.96
2019-02-27T05:05:29.206Z,44.06
2019-02-27T05:06:29.183Z,44.36
2019-02-27T05:07:29.218Z,44.16
2019-02-27T05:08:29.196Z,44.36
2019-02-27T05:09:31.346Z,44.26
2019-02-27T05:10:29.167Z,44.36
2019-02-27T05:11:29.132Z,43.96
2019-02-27T05:12:29.049Z,44.46
2019-02-27T05:13:29.168Z,44.36
2019-02-27T05:14:29.113Z,43.56
2019-02-27T05:15:29.103Z,43.76
2019-02-27T05:16:29.087Z,43.76
2019-02-27T05:17:29.063Z,43.76
2019-02-27T05:18:29.981Z,43.76
2019-02-27T05:19:29.110Z,43.96
2019-02-27T05:20:29.027Z,43.96
2019-02-27T05:21:29.029Z,43.66
2019-02-27T05:22:29.014Z,43.76
2019-02-27T05:23:30.907Z,43.76
2019-02-27T05:24:28.985Z,43.76
2019-02-27T05:25:29.042Z,43.46
2019-02-27T05:26:28.988Z,43.96
2019-02-27T05:27:28.981Z,43.76
2019-02-27T05:28:28.962Z,43.76
2019-02-27T05:29:28.950Z,43.56
2019-02-27T05:30:28.943Z,43.58
2019-02-27T05:31:28.952Z,43.56
2019-02-27T05:32:28.933Z,43.56
2019-02-27T05:33:28.921Z,43.66
2019-02-27T05:34:28.872Z,43.56
2019-02-27T05:35:28.878Z,43.66
2019-02-27T05:36:31.448Z,43.66
2019-02-27T05:37:28.876Z,43.56
2019-02-27T05:38:28.870Z,43.56
2019-02-27T05:39:28.734Z,44.06
2019-02-27T05:40:28.807Z,43.36
2019-02-27T05:41:32.946Z,43.46
2019-02-27T05:42:28.725Z,43.48
2019-02-27T05:43:28.771Z,43.56
2019-02-27T05:44:28.786Z,43.46
2019-02-27T05:45:31.188Z,43.76
2019-02-27T05:46:28.654Z,43.36
2019-02-27T05:47:28.676Z,43.36
2019-02-27T05:48:28.743Z,43.66
2019-02-27T05:49:28.729Z,43.66
2019-02-27T05:50:28.733Z,43.26
2019-02-27T05:51:28.752Z,43.66
2019-02-27T05:52:28.725Z,43.36
2019-02-27T05:53:28.686Z,43.46
2019-02-27T05:54:30.014Z,43.46
2019-02-27T05:55:28.648Z,43.46
2019-02-27T05:56:28.628Z,43.36
2019-02-27T05:57:28.634Z,43.26
2019-02-27T05:58:28.695Z,43.46
2019-02-27T05:59:29.447Z,43.86
2019-02-27T06:00:28.606Z,43.26
2019-02-27T06:01:28.589Z,43.28
2019-02-27T06:02:28.592Z,43.66
2019-02-27T06:03:28.600Z,43.86
2019-02-27T06:04:28.594Z,43.66
2019-02-27T06:05:28.540Z,43.68
2019-02-27T06:06:28.550Z,43.66
2019-02-27T06:07:28.532Z,43.86
2019-02-27T06:08:28.500Z,43.86
2019-02-27T06:09:28.551Z,43.86
2019-02-27T06:10:28.552Z,43.96
2019-02-27T06:11:29.618Z,44.06
2019-02-27T06:12:28.377Z,43.96
2019-02-27T06:13:28.471Z,43.16
2019-02-27T06:14:28.463Z,43.26
2019-02-27T06:15:29.175Z,42.86
2019-02-27T06:16:28.486Z,42.96
2019-02-27T06:17:28.434Z,43.16
2019-02-27T06:18:28.411Z,43.16
2019-02-27T06:19:30.579Z,42.96
2019-02-27T06:20:29.393Z,43.06
2019-02-27T06:21:28.423Z,42.66
2019-02-27T06:22:30.545Z,42.66
2019-02-27T06:23:28.362Z,42.76
2019-02-27T06:24:28.349Z,42.76
2019-02-27T06:25:28.368Z,42.86
2019-02-27T06:26:32.234Z,42.66
2019-02-27T06:27:28.357Z,42.96
2019-02-27T06:28:28.320Z,42.86
2019-02-27T06:29:28.403Z,42.76
2019-02-27T06:30:30.787Z,42.66
2019-02-27T06:31:28.276Z,42.76
2019-02-27T06:32:28.259Z,42.76
2019-02-27T06:33:28.295Z,42.76
2019-02-27T06:34:28.242Z,42.66
2019-02-27T06:35:28.156Z,43.86
2019-02-27T06:36:28.148Z,42.76
2019-02-27T06:37:28.121Z,42.96
2019-02-27T06:38:28.146Z,42.86
2019-02-27T06:39:28.080Z,42.76
2019-02-27T06:40:28.080Z,42.86
2019-02-27T06:41:28.091Z,42.96
2019-02-27T06:42:28.107Z,43.06
2019-02-27T06:43:28.054Z,43.26
2019-02-27T06:44:28.083Z,43.26
2019-02-27T06:45:28.089Z,42.96
2019-02-27T06:46:28.115Z,43.16
2019-02-27T06:47:27.988Z,43.06
2019-02-27T06:48:27.993Z,43.06
2019-02-27T06:49:27.978Z,43.36
2019-02-27T06:50:28.015Z,43.36
2019-02-27T06:51:28.070Z,43.36
2019-02-27T06:52:27.946Z,43.16
2019-02-27T06:53:27.948Z,43.26
2019-02-27T06:54:28.056Z,43.26
2019-02-27T06:55:28.768Z,43.26
2019-02-27T06:56:27.931Z,43.16
2019-02-27T06:57:27.894Z,43.16
2019-02-27T06:58:27.879Z,43.36
2019-02-27T06:59:27.891Z,43.16
2019-02-27T07:00:27.848Z,43.46
2019-02-27T07:01:27.856Z,43.46
2019-02-27T07:02:27.890Z,43.56
2019-02-27T07:03:29.565Z,43.56
2019-02-27T07:04:27.808Z,43.36
2019-02-27T07:05:27.809Z,43.56
2019-02-27T07:06:27.803Z,43.66
2019-02-27T07:07:28.825Z,43.96
2019-02-27T07:08:27.926Z,44.16
2019-02-27T07:09:27.766Z,44.06
2019-02-27T07:10:27.830Z,44.16
2019-02-27T07:11:27.840Z,44.36
2019-02-27T07:12:27.844Z,45.26
2019-02-27T07:13:29.849Z,45.57
2019-02-27T07:14:27.838Z,45.67
2019-02-27T07:15:27.771Z,46.87
2019-02-27T07:16:27.819Z,47.97
2019-02-27T07:17:29.234Z,48.08
2019-02-27T07:18:27.769Z,47.38
2019-02-27T07:19:27.744Z,47.67
2019-02-27T07:20:27.786Z,47.75
2019-02-27T07:21:32.421Z,48.38
2019-02-27T07:22:28.707Z,47.17
2019-02-27T07:23:27.717Z,47.45
2019-02-27T07:24:30.529Z,48.35
2019-02-27T07:25:28.707Z,48.35
2019-02-27T07:26:27.672Z,49.05
2019-02-27T07:27:28.330Z,49.36
2019-02-27T07:28:27.652Z,49.56
2019-02-27T07:29:28.095Z,49.16
2019-02-27T07:30:27.645Z,49.96
2019-02-27T07:31:27.567Z,50.16
2019-02-27T07:32:31.416Z,48.66
2019-02-27T07:33:27.492Z,49.23
2019-02-27T07:34:27.489Z,49.13
2019-02-27T07:35:29.182Z,49.23
2019-02-27T07:36:27.473Z,49.33
2019-02-27T07:37:27.490Z,49.13
2019-02-27T07:38:27.440Z,49.13
2019-02-27T07:39:27.431Z,49.23
2019-02-27T07:40:27.420Z,49.33
2019-02-27T07:41:27.408Z,49.04
2019-02-27T07:42:31.869Z,49.33
2019-02-27T07:43:28.430Z,49.23
2019-02-27T07:44:27.376Z,49.23
2019-02-27T07:45:27.368Z,49.23
2019-02-27T07:46:27.353Z,49.21
2019-02-27T07:47:27.351Z,49.01
2019-02-27T07:48:27.333Z,49.21
2019-02-27T07:49:28.326Z,49.13
2019-02-27T07:50:27.308Z,48.93
2019-02-27T07:51:27.301Z,49.11
2019-02-27T07:52:32.247Z,49.31
2019-02-27T07:53:28.278Z,49.21
2019-02-27T07:54:29.023Z,48.81
2019-02-27T07:55:28.526Z,48.91
2019-02-27T07:56:27.309Z,48.51
2019-02-27T07:57:27.236Z,43.60
2019-02-27T07:58:29.262Z,37.08
2019-02-27T07:59:28.210Z,33.47
2019-02-27T08:00:27.233Z,32.59
2019-02-27T08:01:27.251Z,32.12
2019-02-27T08:02:27.231Z,32.43
2019-02-27T08:03:27.170Z,32.05
2019-02-27T08:04:27.156Z,32.06
2019-02-27T08:05:29.055Z,33.69
2019-02-27T08:06:27.134Z,33.40
2019-02-27T08:07:27.155Z,33.51
2019-02-27T08:08:27.160Z,34.12
2019-02-27T08:09:29.946Z,34.02
2019-02-27T08:10:27.092Z,39.48
2019-02-27T08:11:27.075Z,42.98
2019-02-27T08:12:27.068Z,45.19
2019-02-27T08:13:29.682Z,43.46
2019-02-27T08:14:27.050Z,43.56
2019-02-27T08:15:27.038Z,43.06
2019-02-27T08:16:27.020Z,43.64
2019-02-27T08:17:27.012Z,42.72
2019-02-27T08:18:30.065Z,43.12
2019-02-27T08:19:27.030Z,43.30
2019-02-27T08:20:26.977Z,43.30
2019-02-27T08:21:26.965Z,43.28
2019-02-27T08:22:26.957Z,42.68
2019-02-27T08:23:26.958Z,43.28
2019-02-27T08:24:27.056Z,42.76
2019-02-27T08:25:26.965Z,42.66
2019-02-27T08:26:26.955Z,43.04
2019-02-27T08:27:26.906Z,42.83
2019-02-27T08:28:26.901Z,43.14
2019-02-27T08:29:26.893Z,43.24
2019-02-27T08:30:26.875Z,43.22
2019-02-27T08:31:28.190Z,43.02
2019-02-27T08:32:26.851Z,43.02
2019-02-27T08:33:26.860Z,43.12
2019-02-27T08:34:26.836Z,43.02
2019-02-27T08:35:26.824Z,42.91
2019-02-27T08:36:26.806Z,42.69
2019-02-27T08:37:26.825Z,43.80
2019-02-27T08:38:26.789Z,43.50
2019-02-27T08:39:26.778Z,43.60
2019-02-27T08:40:26.767Z,43.88
2019-02-27T08:41:29.117Z,43.48
2019-02-27T08:42:26.742Z,43.68
2019-02-27T08:43:26.769Z,43.58
2019-02-27T08:44:26.724Z,43.58
2019-02-27T08:45:27.672Z,43.27
2019-02-27T08:46:26.708Z,43.68
2019-02-27T08:47:26.679Z,43.35
2019-02-27T08:48:26.680Z,43.26
2019-02-27T08:49:27.666Z,43.26
2019-02-27T08:50:29.157Z,43.26
2019-02-27T08:51:26.645Z,43.66
2019-02-27T08:52:26.634Z,43.26
2019-02-27T08:53:27.022Z,43.66
2019-02-27T08:54:26.618Z,43.55
2019-02-27T08:55:26.662Z,43.55
2019-02-27T08:56:26.593Z,43.55
2019-02-27T08:57:26.580Z,43.66
2019-02-27T08:58:29.219Z,43.85
2019-02-27T08:59:26.556Z,44.35
2019-02-27T09:00:26.544Z,43.93
2019-02-27T09:01:26.568Z,44.43
2019-02-27T09:02:29.234Z,44.24
2019-02-27T09:03:26.510Z,44.24
2019-02-27T09:04:26.554Z,44.74
2019-02-27T09:05:26.509Z,44.04
2019-02-27T09:06:27.513Z,43.54
2019-02-27T09:07:26.511Z,43.84
2019-02-27T09:08:26.457Z,44.24
2019-02-27T09:09:26.461Z,44.12
2019-02-27T09:10:30.492Z,43.74
2019-02-27T09:11:26.436Z,43.84
2019-02-27T09:12:26.417Z,43.41
2019-02-27T09:13:26.445Z,44.12
2019-02-27T09:14:26.388Z,43.71
2019-02-27T09:15:26.380Z,43.51
2019-02-27T09:16:26.659Z,43.82
2019-02-27T09:17:27.355Z,43.62
2019-02-27T09:18:26.345Z,43.41
2019-02-27T09:19:26.371Z,43.32
2019-02-27T09:20:26.324Z,43.82
2019-02-27T09:21:28.008Z,43.62
2019-02-27T09:22:26.323Z,44.32
2019-02-27T09:23:26.289Z,43.82
2019-02-27T09:24:26.410Z,43.59
2019-02-27T09:25:26.311Z,43.99
2019-02-27T09:26:26.256Z,44.20
2019-02-27T09:27:26.249Z,43.59
2019-02-27T09:28:26.230Z,44.20
2019-02-27T09:29:26.222Z,44.20
2019-02-27T09:30:29.326Z,44.09
2019-02-27T09:31:26.243Z,44.09
2019-02-27T09:32:26.207Z,43.99
2019-02-27T09:33:26.180Z,43.90
2019-02-27T09:34:26.883Z,44.20
2019-02-27T09:35:26.159Z,44.29
2019-02-27T09:36:26.136Z,43.99
2019-02-27T09:37:26.178Z,43.70
2019-02-27T09:38:26.146Z,44.09
2019-02-27T09:39:30.655Z,43.70
2019-02-27T09:40:27.102Z,43.49
2019-02-27T09:41:26.091Z,43.37
2019-02-27T09:42:26.078Z,43.37
2019-02-27T09:43:27.208Z,43.57
2019-02-27T09:44:26.072Z,44.07
2019-02-27T09:45:26.041Z,42.57
2019-02-27T09:46:26.050Z,43.77
2019-02-27T09:47:26.497Z,43.57
2019-02-27T09:48:26.011Z,41.47
2019-02-27T09:49:26.076Z,32.38
2019-02-27T09:50:26.008Z,30.88
2019-02-27T09:51:25.990Z,31.10
2019-02-27T09:52:27.770Z,32.20
2019-02-27T09:53:26.004Z,31.31
2019-02-27T09:54:25.952Z,30.71
2019-02-27T09:55:25.972Z,30.61
2019-02-27T09:56:28.977Z,32.41
2019-02-27T09:57:27.158Z,31.51
2019-02-27T09:58:25.946Z,31.62
2019-02-27T09:59:25.887Z,31.73
2019-02-27T10:00:26.606Z,29.52
2019-02-27T10:01:26.150Z,29.82
2019-02-27T10:02:25.859Z,29.72
2019-02-27T10:03:25.849Z,29.53
2019-02-27T10:04:28.263Z,29.84
2019-02-27T10:05:25.836Z,29.64
2019-02-27T10:06:25.809Z,29.24
2019-02-27T10:07:25.849Z,29.34
2019-02-27T10:08:26.208Z,29.34
2019-02-27T10:09:25.781Z,31.14
2019-02-27T10:10:25.766Z,30.74
2019-02-27T10:11:25.767Z,29.84
2019-02-27T10:12:27.736Z,28.94
2019-02-27T10:13:25.784Z,30.15
2019-02-27T10:14:25.758Z,31.15
2019-02-27T10:15:25.981Z,31.96
2019-02-27T10:16:25.697Z,30.26
2019-02-27T10:17:25.749Z,31.24
2019-02-27T10:18:25.684Z,32.04
2019-02-27T10:19:26.868Z,32.04
2019-02-27T10:20:25.666Z,32.14
2019-02-27T10:21:25.649Z,32.44
2019-02-27T10:22:25.661Z,32.03
2019-02-27T10:23:30.389Z,31.93
2019-02-27T10:24:26.774Z,31.93
2019-02-27T10:25:25.604Z,32.11
2019-02-27T10:26:25.593Z,31.61
2019-02-27T10:27:28.733Z,31.61
2019-02-27T10:28:25.585Z,31.91
2019-02-27T10:29:25.571Z,31.71
2019-02-27T10:30:25.594Z,29.61
2019-02-27T10:31:26.127Z,30.41
2019-02-27T10:32:25.528Z,29.49
2019-02-27T10:33:25.923Z,30.10
2019-02-27T10:34:25.536Z,30.10
2019-02-27T10:35:26.840Z,29.80
2019-02-27T10:36:25.617Z,30.90
2019-02-27T10:37:25.616Z,30.79
2019-02-27T10:38:26.306Z,29.99
2019-02-27T10:39:25.543Z,29.68
2019-02-27T10:40:25.555Z,28.98
2019-02-27T10:41:25.460Z,28.68
2019-02-27T10:42:25.594Z,29.28
2019-02-27T10:43:25.575Z,28.87
2019-02-27T10:44:25.405Z,28.08
2019-02-27T10:45:25.394Z,28.97
2019-02-27T10:46:25.393Z,29.67
2019-02-27T10:47:25.441Z,28.47
2019-02-27T10:48:25.391Z,28.67
2019-02-27T10:49:25.350Z,28.07
2019-02-27T10:50:25.341Z,27.17
2019-02-27T10:51:25.344Z,27.77
2019-02-27T10:52:25.365Z,27.77
2019-02-27T10:53:27.437Z,27.87
2019-02-27T10:54:25.420Z,27.95
2019-02-27T10:55:26.811Z,27.56
2019-02-27T10:56:25.274Z,27.14
2019-02-27T10:57:25.278Z,27.06
2019-02-27T10:58:25.262Z,27.34
2019-02-27T10:59:25.355Z,26.75
2019-02-27T11:00:25.801Z,26.64
2019-02-27T11:01:25.316Z,26.93
2019-02-27T11:02:25.305Z,25.73
2019-02-27T11:03:27.241Z,27.42
2019-02-27T11:04:25.292Z,26.81
2019-02-27T11:05:25.189Z,26.61
2019-02-27T11:06:33.771Z,27.40
2019-02-27T11:07:26.266Z,27.79
2019-02-27T11:08:28.611Z,27.89
2019-02-27T11:09:25.133Z,29.67
2019-02-27T11:10:25.131Z,30.75
2019-02-27T11:11:25.222Z,30.75
2019-02-27T11:12:26.885Z,29.34
2019-02-27T11:13:25.194Z,28.13
2019-02-27T11:14:25.076Z,27.52
2019-02-27T11:15:25.077Z,26.93
2019-02-27T11:16:25.077Z,25.82
2019-02-27T11:17:25.055Z,26.22
2019-02-27T11:18:25.086Z,24.52
2019-02-27T11:19:25.033Z,25.21
2019-02-27T11:20:25.019Z,24.90
2019-02-27T11:21:25.007Z,24.90
2019-02-27T11:22:24.996Z,25.10
2019-02-27T11:23:25.047Z,25.09
2019-02-27T11:24:25.031Z,24.48
2019-02-27T11:25:24.966Z,24.68
2019-02-27T11:26:24.949Z,24.67
2019-02-27T11:27:24.940Z,24.67
2019-02-27T11:28:25.018Z,24.07
2019-02-27T11:29:24.919Z,23.67
2019-02-27T11:30:24.953Z,23.75
2019-02-27T11:31:24.998Z,23.66
2019-02-27T11:32:24.882Z,23.35
2019-02-27T11:33:26.047Z,23.15
2019-02-27T11:34:24.869Z,23.04
2019-02-27T11:35:25.936Z,23.24
2019-02-27T11:36:24.889Z,21.84
2019-02-27T11:37:24.833Z,21.94
2019-02-27T11:38:25.470Z,21.55
2019-02-27T11:39:24.811Z,21.84
2019-02-27T11:40:24.821Z,21.34
2019-02-27T11:41:24.785Z,23.02
2019-02-27T11:42:24.814Z,21.53
2019-02-27T11:43:24.771Z,21.93
2019-02-27T11:44:24.736Z,22.02
2019-02-27T11:45:24.926Z,22.02
2019-02-27T11:46:24.726Z,21.42
2019-02-27T11:47:24.779Z,22.30
2019-02-27T11:48:24.746Z,22.50
2019-02-27T11:49:24.699Z,22.01
2019-02-27T11:50:24.723Z,21.80
2019-02-27T11:51:24.687Z,21.90
2019-02-27T11:52:27.701Z,21.70
2019-02-27T11:53:24.664Z,21.50
2019-02-27T11:54:24.679Z,22.67
2019-02-27T11:55:24.734Z,21.78
2019-02-27T11:56:24.617Z,21.89
2019-02-27T11:57:27.394Z,21.98
2019-02-27T11:58:25.703Z,21.78
2019-02-27T11:59:24.582Z,21.28
2019-02-27T12:00:24.655Z,22.26
2019-02-27T12:01:24.562Z,21.66
2019-02-27T12:02:28.860Z,21.66
2019-02-27T12:03:25.628Z,22.74
2019-02-27T12:04:24.527Z,22.05
2019-02-27T12:05:24.522Z,22.53
2019-02-27T12:06:24.566Z,21.65
2019-02-27T12:07:24.709Z,22.83
2019-02-27T12:08:25.769Z,20.85
2019-02-27T12:09:24.479Z,20.75
2019-02-27T12:10:24.463Z,20.95
2019-02-27T12:11:24.452Z,20.54
2019-02-27T12:12:24.520Z,21.43
2019-02-27T12:13:24.435Z,20.54
2019-02-27T12:14:24.419Z,20.25
2019-02-27T12:15:24.588Z,19.95
2019-02-27T12:16:24.493Z,19.36
2019-02-27T12:17:25.721Z,19.56
2019-02-27T12:18:24.496Z,19.65
2019-02-27T12:19:24.466Z,19.36
2019-02-27T12:20:24.468Z,19.06
2019-02-27T12:21:25.446Z,18.77
2019-02-27T12:22:24.486Z,18.76
2019-02-27T12:23:24.601Z,18.66
2019-02-27T12:24:24.358Z,19.54
2019-02-27T12:25:29.041Z,18.96
2019-02-27T12:26:25.423Z,19.94
2019-02-27T12:27:45.088Z,19.54
2019-02-27T12:28:25.268Z,18.75
2019-02-27T12:29:26.571Z,19.14
2019-02-27T12:30:24.285Z,18.75
2019-02-27T12:31:24.232Z,20.03
2019-02-27T12:32:24.227Z,20.12
2019-02-27T12:33:24.210Z,21.99
2019-02-27T12:34:25.222Z,22.48
2019-02-27T12:35:24.190Z,22.48
2019-02-27T12:36:24.215Z,20.12
2019-02-27T12:37:28.439Z,19.14
2019-02-27T12:38:25.153Z,19.73
2019-02-27T12:39:24.146Z,19.83
2019-02-27T12:40:25.146Z,18.25
2019-02-27T12:41:24.130Z,18.55
2019-02-27T12:42:24.151Z,18.46
2019-02-27T12:43:24.108Z,19.53
2019-02-27T12:44:24.111Z,19.04
2019-02-27T12:45:25.800Z,19.24
2019-02-27T12:46:24.070Z,18.95
2019-02-27T12:47:24.083Z,18.46
2019-02-27T12:48:24.096Z,18.65
2019-02-27T12:49:24.026Z,19.34
2019-02-27T12:50:26.917Z,18.26
2019-02-27T12:51:25.016Z,20.32
2019-02-27T12:52:24.010Z,19.14